sensor_id;sensor_type;location;lat;lon;timestamp;pressure;altitude;pressure_sealevel;temperature;humidity
9421;BME280;4749;51.398;5.466;2023-09-18T00:00:09;100456.34;;;20.60;100.00
9421;BME280;4749;51.398;5.466;2023-09-18T00:02:39;100453.69;;;20.59;100.00
9421;BME280;4749;51.398;5.466;2023-09-18T00:05:07;100452.06;;;20.56;100.00
9421;BME280;4749;51.398;5.466;2023-09-18T00:07:34;100446.78;;;20.55;100.00
9421;BME280;4749;51.398;5.466;2023-09-18T00:10:02;100445.06;;;20.54;100.00
9421;BME280;4749;51.398;5.466;2023-09-18T00:12:29;100442.47;;;20.52;100.00
9421;BME280;4749;51.398;5.466;2023-09-18T00:14:56;100440.69;;;20.51;100.00
9421;BME280;4749;51.398;5.466;2023-09-18T00:17:23;100433.59;;;20.51;100.00
9421;BME280;4749;51.398;5.466;2023-09-18T00:19:51;100423.81;;;20.50;100.00
9421;BME280;4749;51.398;5.466;2023-09-18T00:22:18;100420.28;;;20.50;100.00
9421;BME280;4749;51.398;5.466;2023-09-18T00:24:46;100420.34;;;20.48;100.00
9421;BME280;4749;51.398;5.466;2023-09-18T00:27:13;100411.47;;;20.48;100.00
9421;BME280;4749;51.398;5.466;2023-09-18T00:29:40;100405.25;;;20.47;100.00
9421;BME280;4749;51.398;5.466;2023-09-18T00:32:08;100395.53;;;20.46;100.00
9421;BME280;4749;51.398;5.466;2023-09-18T00:34:35;100394.66;;;20.46;100.00
9421;BME280;4749;51.398;5.466;2023-09-18T00:37:02;100385.72;;;20.47;100.00
9421;BME280;4749;51.398;5.466;2023-09-18T00:39:30;100381.31;;;20.46;100.00
9421;BME280;4749;51.398;5.466;2023-09-18T00:41:58;100379.59;;;20.45;100.00
9421;BME280;4749;51.398;5.466;2023-09-18T00:44:25;100376.84;;;20.46;100.00
9421;BME280;4749;51.398;5.466;2023-09-18T00:46:55;100374.25;;;20.45;100.00
9421;BME280;4749;51.398;5.466;2023-09-18T00:49:24;100380.44;;;20.45;100.00
9421;BME280;4749;51.398;5.466;2023-09-18T00:51:51;100384.06;;;20.44;100.00
9421;BME280;4749;51.398;5.466;2023-09-18T00:54:19;100374.31;;;20.43;100.00
9421;BME280;4749;51.398;5.466;2023-09-18T00:56:47;100376.06;;;20.44;100.00
9421;BME280;4749;51.398;5.466;2023-09-18T00:59:15;100366.31;;;20.43;100.00
9421;BME280;4749;51.398;5.466;2023-09-18T01:01:43;100350.31;;;20.42;100.00
9421;BME280;4749;51.398;5.466;2023-09-18T01:04:12;100346.69;;;20.43;100.00
9421;BME280;4749;51.398;5.466;2023-09-18T01:06:40;100353.81;;;20.44;100.00
9421;BME280;4749;51.398;5.466;2023-09-18T01:09:07;100347.63;;;20.43;100.00
9421;BME280;4749;51.398;5.466;2023-09-18T01:12:03;100337.81;;;20.42;100.00
9421;BME280;4749;51.398;5.466;2023-09-18T01:15:06;100329.81;;;20.42;100.00
9421;BME280;4749;51.398;5.466;2023-09-18T01:17:36;100336.09;;;20.41;100.00
9421;BME280;4749;51.398;5.466;2023-09-18T01:20:08;100326.28;;;20.42;100.00
9421;BME280;4749;51.398;5.466;2023-09-18T01:22:36;100336.94;;;20.42;100.00
9421;BME280;4749;51.398;5.466;2023-09-18T01:25:04;100329.88;;;20.41;100.00
9421;BME280;4749;51.398;5.466;2023-09-18T01:27:33;100331.69;;;20.40;100.00
9421;BME280;4749;51.398;5.466;2023-09-18T01:30:01;100332.56;;;20.41;100.00
9421;BME280;4749;51.398;5.466;2023-09-18T01:32:31;100323.69;;;20.40;100.00
9421;BME280;4749;51.398;5.466;2023-09-18T01:35:02;100321.00;;;20.40;100.00
9421;BME280;4749;51.398;5.466;2023-09-18T01:37:31;100321.81;;;20.42;100.00
9421;BME280;4749;51.398;5.466;2023-09-18T01:39:59;100321.88;;;20.41;100.00
9421;BME280;4749;51.398;5.466;2023-09-18T01:42:27;100316.47;;;20.42;100.00
9421;BME280;4749;51.398;5.466;2023-09-18T01:44:55;100317.22;;;20.46;100.00
9421;BME280;4749;51.398;5.466;2023-09-18T01:47:22;100324.31;;;20.47;100.00
9421;BME280;4749;51.398;5.466;2023-09-18T01:49:50;100320.63;;;20.49;100.00
9421;BME280;4749;51.398;5.466;2023-09-18T01:52:17;100320.50;;;20.52;100.00
9421;BME280;4749;51.398;5.466;2023-09-18T01:54:45;100310.59;;;20.55;100.00
9421;BME280;4749;51.398;5.466;2023-09-18T01:57:12;100311.38;;;20.57;100.00
9421;BME280;4749;51.398;5.466;2023-09-18T01:59:39;100303.38;;;20.57;100.00
9421;BME280;4749;51.398;5.466;2023-09-18T02:02:08;100298.81;;;20.59;100.00
9421;BME280;4749;51.398;5.466;2023-09-18T02:04:41;100299.63;;;20.61;100.00
9421;BME280;4749;51.398;5.466;2023-09-18T02:07:28;100291.56;;;20.62;100.00
9421;BME280;4749;51.398;5.466;2023-09-18T02:09:55;100295.94;;;20.63;100.00
9421;BME280;4749;51.398;5.466;2023-09-18T02:12:22;100285.19;;;20.65;100.00
9421;BME280;4749;51.398;5.466;2023-09-18T02:14:49;100283.31;;;20.67;100.00
9421;BME280;4749;51.398;5.466;2023-09-18T02:17:17;100291.25;;;20.68;100.00
9421;BME280;4749;51.398;5.466;2023-09-18T02:19:45;100290.31;;;20.69;100.00
9421;BME280;4749;51.398;5.466;2023-09-18T02:22:12;100278.63;;;20.72;100.00
9421;BME280;4749;51.398;5.466;2023-09-18T02:24:39;100278.53;;;20.73;100.00
9421;BME280;4749;51.398;5.466;2023-09-18T02:27:06;100270.44;;;20.75;100.00
9421;BME280;4749;51.398;5.466;2023-09-18T02:29:34;100261.50;;;20.76;100.00
9421;BME280;4749;51.398;5.466;2023-09-18T02:32:01;100271.31;;;20.75;100.00
9421;BME280;4749;51.398;5.466;2023-09-18T02:34:29;100272.16;;;20.76;100.00
9421;BME280;4749;51.398;5.466;2023-09-18T02:36:56;100269.50;;;20.76;100.00
9421;BME280;4749;51.398;5.466;2023-09-18T02:39:23;100259.75;;;20.75;100.00
9421;BME280;4749;51.398;5.466;2023-09-18T02:41:51;100282.06;;;20.74;100.00
9421;BME280;4749;51.398;5.466;2023-09-18T02:44:18;100263.38;;;20.74;100.00
9421;BME280;4749;51.398;5.466;2023-09-18T02:46:45;100239.25;;;20.75;100.00
9421;BME280;4749;51.398;5.466;2023-09-18T02:49:12;100227.63;;;20.76;100.00
9421;BME280;4749;51.398;5.466;2023-09-18T02:51:39;100219.47;;;20.79;100.00
9421;BME280;4749;51.398;5.466;2023-09-18T02:54:06;100224.81;;;20.79;100.00
9421;BME280;4749;51.398;5.466;2023-09-18T02:56:33;100197.16;;;20.80;100.00
9421;BME280;4749;51.398;5.466;2023-09-18T02:59:01;100199.84;;;20.80;100.00
9421;BME280;4749;51.398;5.466;2023-09-18T03:01:28;100216.72;;;20.81;100.00
9421;BME280;4749;51.398;5.466;2023-09-18T03:03:55;100211.38;;;20.81;100.00
9421;BME280;4749;51.398;5.466;2023-09-18T03:06:23;100208.72;;;20.81;100.00
9421;BME280;4749;51.398;5.466;2023-09-18T03:08:50;100192.78;;;20.79;100.00
9421;BME280;4749;51.398;5.466;2023-09-18T03:11:18;100194.56;;;20.79;100.00
9421;BME280;4749;51.398;5.466;2023-09-18T03:13:46;100201.81;;;20.77;100.00
9421;BME280;4749;51.398;5.466;2023-09-18T03:16:14;100209.00;;;20.75;100.00
9421;BME280;4749;51.398;5.466;2023-09-18T03:18:42;100205.63;;;20.71;100.00
9421;BME280;4749;51.398;5.466;2023-09-18T03:21:09;100213.81;;;20.68;100.00
9421;BME280;4749;51.398;5.466;2023-09-18T03:23:36;100233.41;;;20.67;100.00
9421;BME280;4749;51.398;5.466;2023-09-18T03:26:03;100240.56;;;20.67;100.00
9421;BME280;4749;51.398;5.466;2023-09-18T03:28:31;100248.66;;;20.65;100.00
9421;BME280;4749;51.398;5.466;2023-09-18T03:30:58;100245.06;;;20.66;100.00
9421;BME280;4749;51.398;5.466;2023-09-18T03:33:25;100230.84;;;20.66;100.00
9421;BME280;4749;51.398;5.466;2023-09-18T03:35:53;100224.72;;;20.64;100.00
9421;BME280;4749;51.398;5.466;2023-09-18T03:38:25;100229.88;;;20.67;100.00
9421;BME280;4749;51.398;5.466;2023-09-18T03:40:53;100225.41;;;20.67;100.00
9421;BME280;4749;51.398;5.466;2023-09-18T03:43:20;100219.94;;;20.70;100.00
9421;BME280;4749;51.398;5.466;2023-09-18T03:45:48;100218.06;;;20.72;100.00
9421;BME280;4749;51.398;5.466;2023-09-18T03:48:15;100221.50;;;20.74;100.00
9421;BME280;4749;51.398;5.466;2023-09-18T03:50:43;100216.94;;;20.76;100.00
9421;BME280;4749;51.398;5.466;2023-09-18T03:53:10;100216.91;;;20.78;100.00
9421;BME280;4749;51.398;5.466;2023-09-18T03:55:38;100207.19;;;20.75;100.00
9421;BME280;4749;51.398;5.466;2023-09-18T03:58:05;100212.72;;;20.72;100.00
9421;BME280;4749;51.398;5.466;2023-09-18T04:00:33;100227.09;;;20.70;100.00
9421;BME280;4749;51.398;5.466;2023-09-18T04:03:00;100227.28;;;20.65;100.00
9421;BME280;4749;51.398;5.466;2023-09-18T04:05:28;100243.31;;;20.65;100.00
9421;BME280;4749;51.398;5.466;2023-09-18T04:07:55;100238.06;;;20.64;100.00
9421;BME280;4749;51.398;5.466;2023-09-18T04:10:22;100239.78;;;20.65;100.00
9421;BME280;4749;51.398;5.466;2023-09-18T04:12:51;100223.84;;;20.63;100.00
9421;BME280;4749;51.398;5.466;2023-09-18T04:15:19;100223.75;;;20.65;100.00
9421;BME280;4749;51.398;5.466;2023-09-18T04:17:47;100217.56;;;20.64;100.00
9421;BME280;4749;51.398;5.466;2023-09-18T04:20:15;100207.66;;;20.66;100.00
9421;BME280;4749;51.398;5.466;2023-09-18T04:22:47;100203.25;;;20.65;100.00
9421;BME280;4749;51.398;5.466;2023-09-18T04:25:18;100198.00;;;20.64;100.00
9421;BME280;4749;51.398;5.466;2023-09-18T04:27:47;100194.47;;;20.63;100.00
9421;BME280;4749;51.398;5.466;2023-09-18T04:30:17;100198.94;;;20.63;100.00
9421;BME280;4749;51.398;5.466;2023-09-18T04:32:47;100196.28;;;20.63;100.00
9421;BME280;4749;51.398;5.466;2023-09-18T04:35:14;100189.03;;;20.65;100.00
9421;BME280;4749;51.398;5.466;2023-09-18T04:37:42;100172.16;;;20.64;100.00
9421;BME280;4749;51.398;5.466;2023-09-18T04:40:09;100166.91;;;20.63;100.00
9421;BME280;4749;51.398;5.466;2023-09-18T04:42:38;100156.22;;;20.63;100.00
9421;BME280;4749;51.398;5.466;2023-09-18T04:45:10;100162.59;;;20.60;100.00
9421;BME280;4749;51.398;5.466;2023-09-18T04:47:37;100143.16;;;20.57;100.00
9421;BME280;4749;51.398;5.466;2023-09-18T04:50:05;100148.66;;;20.54;100.00
9421;BME280;4749;51.398;5.466;2023-09-18T04:52:39;100147.88;;;20.51;100.00
9421;BME280;4749;51.398;5.466;2023-09-18T04:55:08;100145.34;;;20.48;100.00
9421;BME280;4749;51.398;5.466;2023-09-18T04:57:35;100161.53;;;20.45;100.00
9421;BME280;4749;51.398;5.466;2023-09-18T05:00:03;100149.13;;;20.43;100.00
9421;BME280;4749;51.398;5.466;2023-09-18T05:02:44;100144.81;;;20.40;100.00
9421;BME280;4749;51.398;5.466;2023-09-18T05:05:12;100152.03;;;20.38;100.00
9421;BME280;4749;51.398;5.466;2023-09-18T05:07:41;100150.41;;;20.36;100.00
9421;BME280;4749;51.398;5.466;2023-09-18T05:10:09;100151.41;;;20.33;100.00
9421;BME280;4749;51.398;5.466;2023-09-18T05:12:40;100150.63;;;20.31;100.00
9421;BME280;4749;51.398;5.466;2023-09-18T05:15:09;100158.78;;;20.28;100.00
9421;BME280;4749;51.398;5.466;2023-09-18T05:17:48;100153.53;;;20.27;100.00
9421;BME280;4749;51.398;5.466;2023-09-18T05:20:23;100147.44;;;20.23;100.00
9421;BME280;4749;51.398;5.466;2023-09-18T05:22:52;100156.47;;;20.20;100.00
9421;BME280;4749;51.398;5.466;2023-09-18T05:25:24;100152.00;;;20.21;100.00
9421;BME280;4749;51.398;5.466;2023-09-18T05:27:53;100164.56;;;20.19;100.00
9421;BME280;4749;51.398;5.466;2023-09-18T05:30:29;100152.00;;;20.21;100.00
9421;BME280;4749;51.398;5.466;2023-09-18T05:33:01;100149.34;;;20.21;100.00
9421;BME280;4749;51.398;5.466;2023-09-18T05:35:42;100148.31;;;20.23;100.00
9421;BME280;4749;51.398;5.466;2023-09-18T05:38:12;100155.38;;;20.24;100.00
9421;BME280;4749;51.398;5.466;2023-09-18T05:40:50;100157.97;;;20.26;100.00
9421;BME280;4749;51.398;5.466;2023-09-18T05:43:17;100161.53;;;20.27;100.00
9421;BME280;4749;51.398;5.466;2023-09-18T05:45:45;100170.41;;;20.27;100.00
9421;BME280;4749;51.398;5.466;2023-09-18T05:48:12;100169.47;;;20.28;100.00
9421;BME280;4749;51.398;5.466;2023-09-18T05:50:40;100172.03;;;20.30;100.00
9421;BME280;4749;51.398;5.466;2023-09-18T05:53:09;100158.53;;;20.33;100.00
9421;BME280;4749;51.398;5.466;2023-09-18T05:55:36;100170.91;;;20.35;100.00
9421;BME280;4749;51.398;5.466;2023-09-18T05:58:03;100173.47;;;20.37;100.00
9421;BME280;4749;51.398;5.466;2023-09-18T06:00:32;100180.56;;;20.38;100.00
9421;BME280;4749;51.398;5.466;2023-09-18T06:03:00;100187.63;;;20.39;100.00
9421;BME280;4749;51.398;5.466;2023-09-18T06:05:27;100192.88;;;20.40;100.00
9421;BME280;4749;51.398;5.466;2023-09-18T06:07:55;100188.41;;;20.41;100.00
9421;BME280;4749;51.398;5.466;2023-09-18T06:10:22;100200.81;;;20.42;100.00
9421;BME280;4749;51.398;5.466;2023-09-18T06:12:49;100181.16;;;20.43;100.00
9421;BME280;4749;51.398;5.466;2023-09-18T06:15:17;100170.50;;;20.43;100.00
9421;BME280;4749;51.398;5.466;2023-09-18T06:17:45;100180.28;;;20.44;100.00
9421;BME280;4749;51.398;5.466;2023-09-18T06:20:13;100187.44;;;20.43;100.00
9421;BME280;4749;51.398;5.466;2023-09-18T06:22:41;100197.19;;;20.44;100.00
9421;BME280;4749;51.398;5.466;2023-09-18T06:25:09;100191.84;;;20.44;100.00
9421;BME280;4749;51.398;5.466;2023-09-18T06:27:40;100193.56;;;20.45;100.00
9421;BME280;4749;51.398;5.466;2023-09-18T06:30:08;100192.53;;;20.48;100.00
9421;BME280;4749;51.398;5.466;2023-09-18T06:32:35;100199.53;;;20.50;100.00
9421;BME280;4749;51.398;5.466;2023-09-18T06:35:05;100195.69;;;20.56;100.00
9421;BME280;4749;51.398;5.466;2023-09-18T06:37:32;100213.16;;;20.63;100.00
9421;BME280;4749;51.398;5.466;2023-09-18T06:39:59;100218.75;;;20.76;100.00
9421;BME280;4749;51.398;5.466;2023-09-18T06:42:29;100209.41;;;20.85;100.00
9421;BME280;4749;51.398;5.466;2023-09-18T06:44:57;100205.41;;;20.93;100.00
9421;BME280;4749;51.398;5.466;2023-09-18T06:47:24;100214.72;;;21.03;100.00
9421;BME280;4749;51.398;5.466;2023-09-18T06:49:51;100207.03;;;21.15;100.00
9421;BME280;4749;51.398;5.466;2023-09-18T06:52:19;100223.38;;;21.26;100.00
9421;BME280;4749;51.398;5.466;2023-09-18T06:54:46;100211.38;;;21.34;100.00
9421;BME280;4749;51.398;5.466;2023-09-18T06:57:16;100219.00;;;21.42;100.00
9421;BME280;4749;51.398;5.466;2023-09-18T06:59:44;100231.97;;;21.50;100.00
9421;BME280;4749;51.398;5.466;2023-09-18T07:02:11;100222.00;;;21.53;100.00
9421;BME280;4749;51.398;5.466;2023-09-18T07:04:42;100218.28;;;21.56;100.00
9421;BME280;4749;51.398;5.466;2023-09-18T07:07:14;100212.84;;;21.57;100.00
9421;BME280;4749;51.398;5.466;2023-09-18T07:09:42;100221.03;;;21.54;100.00
9421;BME280;4749;51.398;5.466;2023-09-18T07:12:28;100225.34;;;21.57;100.00
9421;BME280;4749;51.398;5.466;2023-09-18T07:14:55;100231.34;;;21.62;100.00
9421;BME280;4749;51.398;5.466;2023-09-18T07:17:22;100238.06;;;21.69;100.00
9421;BME280;4749;51.398;5.466;2023-09-18T07:19:49;100238.88;;;21.71;100.00
9421;BME280;4749;51.398;5.466;2023-09-18T07:22:17;100241.47;;;21.73;100.00
9421;BME280;4749;51.398;5.466;2023-09-18T07:24:44;100244.06;;;21.74;100.00
9421;BME280;4749;51.398;5.466;2023-09-18T07:27:12;100253.66;;;21.78;100.00
9421;BME280;4749;51.398;5.466;2023-09-18T07:29:40;100246.25;;;21.83;100.00
9421;BME280;4749;51.398;5.466;2023-09-18T07:32:07;100253.78;;;21.92;100.00
9421;BME280;4749;51.398;5.466;2023-09-18T07:34:36;100249.81;;;22.00;100.00
9421;BME280;4749;51.398;5.466;2023-09-18T07:37:04;100246.69;;;22.09;100.00
9421;BME280;4749;51.398;5.466;2023-09-18T07:39:31;100243.75;;;22.13;100.00
9421;BME280;4749;51.398;5.466;2023-09-18T07:41:59;100231.25;;;22.14;100.00
9421;BME280;4749;51.398;5.466;2023-09-18T07:44:27;100240.81;;;22.18;100.00
9421;BME280;4749;51.398;5.466;2023-09-18T07:46:54;100256.56;;;22.24;100.00
9421;BME280;4749;51.398;5.466;2023-09-18T07:49:22;100250.69;;;22.33;100.00
9421;BME280;4749;51.398;5.466;2023-09-18T07:51:49;100236.97;;;22.39;100.00
9421;BME280;4749;51.398;5.466;2023-09-18T07:54:16;100234.63;;;22.49;100.00
9421;BME280;4749;51.398;5.466;2023-09-18T07:56:43;100237.66;;;22.59;100.00
9421;BME280;4749;51.398;5.466;2023-09-18T07:59:10;100243.34;;;22.68;100.00
9421;BME280;4749;51.398;5.466;2023-09-18T08:01:38;100237.84;;;22.71;100.00
9421;BME280;4749;51.398;5.466;2023-09-18T08:04:05;100242.34;;;22.71;100.00
9421;BME280;4749;51.398;5.466;2023-09-18T08:06:33;100229.81;;;22.71;100.00
9421;BME280;4749;51.398;5.466;2023-09-18T08:09:00;100231.44;;;22.74;100.00
9421;BME280;4749;51.398;5.466;2023-09-18T08:11:28;100226.06;;;22.74;100.00
9421;BME280;4749;51.398;5.466;2023-09-18T08:13:55;100242.91;;;22.76;100.00
9421;BME280;4749;51.398;5.466;2023-09-18T08:16:22;100240.56;;;22.70;100.00
9421;BME280;4749;51.398;5.466;2023-09-18T08:18:50;100245.59;;;22.76;100.00
9421;BME280;4749;51.398;5.466;2023-09-18T08:21:18;100247.94;;;22.82;100.00
9421;BME280;4749;51.398;5.466;2023-09-18T08:23:45;100253.19;;;22.84;100.00
9421;BME280;4749;51.398;5.466;2023-09-18T08:26:13;100260.84;;;22.91;100.00
9421;BME280;4749;51.398;5.466;2023-09-18T08:28:40;100248.81;;;22.98;100.00
9421;BME280;4749;51.398;5.466;2023-09-18T08:31:10;100260.06;;;22.89;100.00
9421;BME280;4749;51.398;5.466;2023-09-18T08:33:38;100271.09;;;22.83;100.00
9421;BME280;4749;51.398;5.466;2023-09-18T08:36:06;100272.81;;;22.84;100.00
9421;BME280;4749;51.398;5.466;2023-09-18T08:38:33;100272.16;;;22.81;100.00
9421;BME280;4749;51.398;5.466;2023-09-18T08:41:01;100277.06;;;22.72;100.00
9421;BME280;4749;51.398;5.466;2023-09-18T08:43:31;100282.16;;;22.77;100.00
9421;BME280;4749;51.398;5.466;2023-09-18T08:46:00;100288.91;;;22.84;100.00
9421;BME280;4749;51.398;5.466;2023-09-18T08:48:31;100286.69;;;22.92;100.00
9421;BME280;4749;51.398;5.466;2023-09-18T08:51:05;100275.69;;;22.81;100.00
9421;BME280;4749;51.398;5.466;2023-09-18T08:53:35;100276.97;;;22.74;100.00
9421;BME280;4749;51.398;5.466;2023-09-18T08:56:05;100268.16;;;22.72;100.00
9421;BME280;4749;51.398;5.466;2023-09-18T08:58:35;100269.03;;;22.72;100.00
9421;BME280;4749;51.398;5.466;2023-09-18T09:01:04;100274.91;;;22.79;100.00
9421;BME280;4749;51.398;5.466;2023-09-18T09:03:33;100266.81;;;22.96;100.00
9421;BME280;4749;51.398;5.466;2023-09-18T09:06:01;100276.56;;;23.13;100.00
9421;BME280;4749;51.398;5.466;2023-09-18T09:08:29;100270.34;;;23.27;100.00
9421;BME280;4749;51.398;5.466;2023-09-18T09:10:56;100274.72;;;23.44;100.00
9421;BME280;4749;51.398;5.466;2023-09-18T09:13:27;100279.22;;;23.43;100.00
9421;BME280;4749;51.398;5.466;2023-09-18T09:16:12;100277.16;;;23.48;100.00
9421;BME280;4749;51.398;5.466;2023-09-18T09:18:50;100288.13;;;23.44;100.00
9421;BME280;4749;51.398;5.466;2023-09-18T09:21:19;100286.91;;;23.65;100.00
9421;BME280;4749;51.398;5.466;2023-09-18T09:23:50;100279.94;;;23.91;100.00
9421;BME280;4749;51.398;5.466;2023-09-18T09:26:22;100292.81;;;24.14;100.00
9421;BME280;4749;51.398;5.466;2023-09-18T09:28:50;100293.59;;;24.31;100.00
9421;BME280;4749;51.398;5.466;2023-09-18T09:31:26;100287.25;;;24.18;100.00
9421;BME280;4749;51.398;5.466;2023-09-18T09:33:55;100290.97;;;24.01;100.00
9421;BME280;4749;51.398;5.466;2023-09-18T09:36:24;100295.69;;;24.26;100.00
9421;BME280;4749;51.398;5.466;2023-09-18T09:38:56;100291.38;;;24.52;100.00
9421;BME280;4749;51.398;5.466;2023-09-18T09:41:27;100294.78;;;24.82;100.00
9421;BME280;4749;51.398;5.466;2023-09-18T09:43:56;100286.00;;;24.93;100.00
9421;BME280;4749;51.398;5.466;2023-09-18T09:46:24;100286.75;;;25.09;100.00
9421;BME280;4749;51.398;5.466;2023-09-18T09:49:05;100267.78;;;25.38;100.00
9421;BME280;4749;51.398;5.466;2023-09-18T09:51:34;100274.06;;;25.51;100.00
9421;BME280;4749;51.398;5.466;2023-09-18T09:54:01;100282.66;;;25.43;100.00
9421;BME280;4749;51.398;5.466;2023-09-18T09:56:41;100287.00;;;25.19;100.00
9421;BME280;4749;51.398;5.466;2023-09-18T09:59:11;100281.19;;;24.98;100.00
9421;BME280;4749;51.398;5.466;2023-09-18T10:01:39;100300.03;;;24.98;100.00
9421;BME280;4749;51.398;5.466;2023-09-18T10:04:17;100301.53;;;25.16;100.00
9421;BME280;4749;51.398;5.466;2023-09-18T10:06:54;100317.16;;;25.24;100.00
9421;BME280;4749;51.398;5.466;2023-09-18T10:09:26;100316.69;;;25.17;100.00
9421;BME280;4749;51.398;5.466;2023-09-18T10:11:54;100323.25;;;24.99;100.00
9421;BME280;4749;51.398;5.466;2023-09-18T10:14:33;100320.97;;;24.79;100.00
9421;BME280;4749;51.398;5.466;2023-09-18T10:17:21;100324.34;;;24.82;100.00
9421;BME280;4749;51.398;5.466;2023-09-18T10:20:08;100321.81;;;24.93;100.00
9421;BME280;4749;51.398;5.466;2023-09-18T10:22:49;100319.72;;;24.98;100.00
9421;BME280;4749;51.398;5.466;2023-09-18T10:25:24;100311.34;;;25.03;100.00
9421;BME280;4749;51.398;5.466;2023-09-18T10:27:55;100313.16;;;25.17;100.00
9421;BME280;4749;51.398;5.466;2023-09-18T10:30:25;100326.34;;;25.34;100.00
9421;BME280;4749;51.398;5.466;2023-09-18T10:32:53;100315.31;;;25.64;100.00
9421;BME280;4749;51.398;5.466;2023-09-18T10:35:22;100322.00;;;25.59;100.00
9421;BME280;4749;51.398;5.466;2023-09-18T10:37:50;100323.25;;;25.40;100.00
9421;BME280;4749;51.398;5.466;2023-09-18T10:40:21;100312.47;;;25.40;100.00
9421;BME280;4749;51.398;5.466;2023-09-18T10:42:50;100318.72;;;25.41;100.00
9421;BME280;4749;51.398;5.466;2023-09-18T10:45:21;100317.84;;;25.40;100.00
9421;BME280;4749;51.398;5.466;2023-09-18T10:47:49;100320.78;;;25.50;100.00
9421;BME280;4749;51.398;5.466;2023-09-18T10:50:24;100311.63;;;25.52;100.00
9421;BME280;4749;51.398;5.466;2023-09-18T10:52:52;100311.00;;;25.62;100.00
9421;BME280;4749;51.398;5.466;2023-09-18T10:55:21;100304.47;;;25.66;100.00
9421;BME280;4749;51.398;5.466;2023-09-18T10:57:59;100303.69;;;25.64;100.00
9421;BME280;4749;51.398;5.466;2023-09-18T11:00:32;100300.09;;;25.77;100.00
9421;BME280;4749;51.398;5.466;2023-09-18T11:03:15;100310.66;;;25.93;100.00
9421;BME280;4749;51.398;5.466;2023-09-18T11:05:47;100297.09;;;26.07;100.00
9421;BME280;4749;51.398;5.466;2023-09-18T11:08:46;100300.00;;;26.17;100.00
9421;BME280;4749;51.398;5.466;2023-09-18T11:11:18;100282.53;;;26.10;100.00
9421;BME280;4749;51.398;5.466;2023-09-18T11:13:53;100299.88;;;26.19;100.00
9421;BME280;4749;51.398;5.466;2023-09-18T11:21:30;100306.56;;;26.88;100.00
9421;BME280;4749;51.398;5.466;2023-09-18T11:24:14;100306.44;;;26.53;100.00
9421;BME280;4749;51.398;5.466;2023-09-18T11:26:48;100303.97;;;26.24;100.00
9421;BME280;4749;51.398;5.466;2023-09-18T11:29:21;100309.56;;;26.47;100.00
9421;BME280;4749;51.398;5.466;2023-09-18T11:31:56;100322.63;;;26.89;100.00
9421;BME280;4749;51.398;5.466;2023-09-18T11:34:32;100312.25;;;26.96;100.00
9421;BME280;4749;51.398;5.466;2023-09-18T11:37:20;100308.47;;;26.75;100.00
9421;BME280;4749;51.398;5.466;2023-09-18T11:39:48;100315.44;;;26.41;100.00
9421;BME280;4749;51.398;5.466;2023-09-18T11:42:20;100300.09;;;26.28;100.00
9421;BME280;4749;51.398;5.466;2023-09-18T11:44:53;100296.88;;;26.10;100.00
9421;BME280;4749;51.398;5.466;2023-09-18T11:47:25;100304.00;;;25.99;100.00
9421;BME280;4749;51.398;5.466;2023-09-18T11:49:57;100296.97;;;25.96;100.00
9421;BME280;4749;51.398;5.466;2023-09-18T11:52:30;100299.66;;;25.96;100.00
9421;BME280;4749;51.398;5.466;2023-09-18T11:54:59;100295.47;;;25.92;100.00
9421;BME280;4749;51.398;5.466;2023-09-18T11:57:27;100294.06;;;25.87;100.00
9421;BME280;4749;51.398;5.466;2023-09-18T11:59:56;100294.34;;;25.69;100.00
9421;BME280;4749;51.398;5.466;2023-09-18T12:02:31;100293.66;;;25.40;100.00
9421;BME280;4749;51.398;5.466;2023-09-18T12:05:14;100282.63;;;25.31;100.00
9421;BME280;4749;51.398;5.466;2023-09-18T12:07:44;100291.81;;;25.14;100.00
9421;BME280;4749;51.398;5.466;2023-09-18T12:10:17;100297.63;;;25.08;100.00
9421;BME280;4749;51.398;5.466;2023-09-18T12:12:45;100289.84;;;25.03;100.00
9421;BME280;4749;51.398;5.466;2023-09-18T12:15:14;100292.25;;;24.93;100.00
9421;BME280;4749;51.398;5.466;2023-09-18T12:17:44;100280.28;;;24.85;100.00
9421;BME280;4749;51.398;5.466;2023-09-18T12:20:16;100283.59;;;24.88;100.00
9421;BME280;4749;51.398;5.466;2023-09-18T12:22:50;100276.25;;;24.78;100.00
9421;BME280;4749;51.398;5.466;2023-09-18T12:25:18;100279.75;;;24.65;100.00
9421;BME280;4749;51.398;5.466;2023-09-18T12:27:46;100272.34;;;24.55;100.00
9421;BME280;4749;51.398;5.466;2023-09-18T12:30:18;100271.13;;;24.46;100.00
9421;BME280;4749;51.398;5.466;2023-09-18T12:32:52;100269.25;;;24.75;100.00
9421;BME280;4749;51.398;5.466;2023-09-18T12:35:20;100256.16;;;24.97;100.00
9421;BME280;4749;51.398;5.466;2023-09-18T12:37:52;100262.81;;;24.78;100.00
9421;BME280;4749;51.398;5.466;2023-09-18T12:40:27;100266.84;;;24.70;100.00
9421;BME280;4749;51.398;5.466;2023-09-18T12:42:56;100282.84;;;24.86;100.00
9421;BME280;4749;51.398;5.466;2023-09-18T12:45:24;100262.09;;;25.03;100.00
9421;BME280;4749;51.398;5.466;2023-09-18T12:47:55;100263.47;;;25.35;100.00
9421;BME280;4749;51.398;5.466;2023-09-18T12:50:25;100266.66;;;25.67;100.00
9421;BME280;4749;51.398;5.466;2023-09-18T12:52:52;100256.91;;;25.92;100.00
9421;BME280;4749;51.398;5.466;2023-09-18T12:55:24;100257.34;;;25.98;100.00
9421;BME280;4749;51.398;5.466;2023-09-18T12:57:55;100250.56;;;25.93;100.00
9421;BME280;4749;51.398;5.466;2023-09-18T13:00:23;100260.03;;;25.86;100.00
9421;BME280;4749;51.398;5.466;2023-09-18T13:02:54;100243.19;;;25.69;100.00
9421;BME280;4749;51.398;5.466;2023-09-18T13:05:25;100251.16;;;25.58;100.00
9421;BME280;4749;51.398;5.466;2023-09-18T13:08:04;100238.66;;;25.70;100.00
9421;BME280;4749;51.398;5.466;2023-09-18T13:10:47;100234.66;;;25.63;100.00
9421;BME280;4749;51.398;5.466;2023-09-18T13:13:18;100237.66;;;25.45;100.00
9421;BME280;4749;51.398;5.466;2023-09-18T13:15:46;100225.38;;;25.29;100.00
9421;BME280;4749;51.398;5.466;2023-09-18T13:18:16;100210.72;;;25.20;100.00